sensor_id;sensor_type;location;lat;lon;timestamp;P1;durP1;ratioP1;P2;durP2;ratioP2
35634;SDS011;21757;43.610;1.440;2023-05-07T00:00:03;10.50;;;5.32;;
35634;SDS011;21757;43.610;1.440;2023-05-07T00:02:33;10.32;;;5.88;;
35634;SDS011;21757;43.610;1.440;2023-05-07T00:04:59;9.63;;;5.43;;
35634;SDS011;21757;43.610;1.440;2023-05-07T00:07:26;12.00;;;4.97;;
35634;SDS011;21757;43.610;1.440;2023-05-07T00:09:51;10.45;;;5.30;;
35634;SDS011;21757;43.610;1.440;2023-05-07T00:12:17;13.73;;;5.53;;
35634;SDS011;21757;43.610;1.440;2023-05-07T00:14:43;12.55;;;6.00;;
35634;SDS011;21757;43.610;1.440;2023-05-07T00:17:10;11.82;;;5.95;;
35634;SDS011;21757;43.610;1.440;2023-05-07T00:19:38;12.15;;;5.07;;
35634;SDS011;21757;43.610;1.440;2023-05-07T00:22:04;9.80;;;5.20;;
35634;SDS011;21757;43.610;1.440;2023-05-07T00:24:30;10.52;;;4.95;;
35634;SDS011;21757;43.610;1.440;2023-05-07T00:26:55;10.43;;;5.22;;
35634;SDS011;21757;43.610;1.440;2023-05-07T00:29:23;13.60;;;5.38;;
35634;SDS011;21757;43.610;1.440;2023-05-07T00:31:49;10.70;;;4.93;;
35634;SDS011;21757;43.610;1.440;2023-05-07T00:34:15;10.20;;;5.18;;
35634;SDS011;21757;43.610;1.440;2023-05-07T00:36:41;10.27;;;4.80;;
35634;SDS011;21757;43.610;1.440;2023-05-07T00:39:07;10.27;;;5.30;;
35634;SDS011;21757;43.610;1.440;2023-05-07T00:41:32;11.15;;;4.75;;
35634;SDS011;21757;43.610;1.440;2023-05-07T00:43:58;9.68;;;5.28;;
35634;SDS011;21757;43.610;1.440;2023-05-07T00:46:24;13.27;;;4.85;;
35634;SDS011;21757;43.610;1.440;2023-05-07T00:48:50;12.15;;;5.45;;
35634;SDS011;21757;43.610;1.440;2023-05-07T00:51:17;11.98;;;5.00;;
35634;SDS011;21757;43.610;1.440;2023-05-07T00:53:43;12.98;;;4.47;;
35634;SDS011;21757;43.610;1.440;2023-05-07T00:56:09;10.32;;;5.22;;
35634;SDS011;21757;43.610;1.440;2023-05-07T00:58:36;12.70;;;4.82;;
35634;SDS011;21757;43.610;1.440;2023-05-07T01:01:02;12.73;;;4.88;;
35634;SDS011;21757;43.610;1.440;2023-05-07T01:03:31;10.45;;;5.28;;
35634;SDS011;21757;43.610;1.440;2023-05-07T01:06:19;9.02;;;4.55;;
35634;SDS011;21757;43.610;1.440;2023-05-07T01:08:47;11.07;;;4.82;;
35634;SDS011;21757;43.610;1.440;2023-05-07T01:11:13;8.40;;;5.10;;
35634;SDS011;21757;43.610;1.440;2023-05-07T01:16:15;9.88;;;4.90;;
35634;SDS011;21757;43.610;1.440;2023-05-07T01:18:40;9.13;;;4.75;;
35634;SDS011;21757;43.610;1.440;2023-05-07T01:21:06;11.93;;;4.78;;
35634;SDS011;21757;43.610;1.440;2023-05-07T01:23:35;9.27;;;4.03;;
35634;SDS011;21757;43.610;1.440;2023-05-07T01:26:02;12.25;;;4.50;;
35634;SDS011;21757;43.610;1.440;2023-05-07T01:28:27;15.93;;;3.72;;
35634;SDS011;21757;43.610;1.440;2023-05-07T01:30:54;13.95;;;5.28;;
35634;SDS011;21757;43.610;1.440;2023-05-07T01:33:26;11.13;;;3.85;;
35634;SDS011;21757;43.610;1.440;2023-05-07T01:35:54;11.20;;;3.97;;
35634;SDS011;21757;43.610;1.440;2023-05-07T01:38:21;9.98;;;4.28;;
35634;SDS011;21757;43.610;1.440;2023-05-07T01:40:48;11.18;;;3.80;;
35634;SDS011;21757;43.610;1.440;2023-05-07T01:43:14;11.23;;;4.15;;
35634;SDS011;21757;43.610;1.440;2023-05-07T01:45:40;12.77;;;3.78;;
35634;SDS011;21757;43.610;1.440;2023-05-07T01:48:07;12.52;;;4.10;;
35634;SDS011;21757;43.610;1.440;2023-05-07T01:50:35;12.50;;;4.05;;
35634;SDS011;21757;43.610;1.440;2023-05-07T01:53:01;9.82;;;3.20;;
35634;SDS011;21757;43.610;1.440;2023-05-07T01:55:27;14.40;;;3.85;;
35634;SDS011;21757;43.610;1.440;2023-05-07T01:57:53;12.50;;;3.85;;
35634;SDS011;21757;43.610;1.440;2023-05-07T02:00:19;10.60;;;3.38;;
35634;SDS011;21757;43.610;1.440;2023-05-07T02:02:45;9.50;;;3.72;;
35634;SDS011;21757;43.610;1.440;2023-05-07T02:05:10;12.23;;;3.60;;
35634;SDS011;21757;43.610;1.440;2023-05-07T02:07:36;10.23;;;3.80;;
35634;SDS011;21757;43.610;1.440;2023-05-07T02:10:02;9.15;;;3.17;;
35634;SDS011;21757;43.610;1.440;2023-05-07T02:12:28;13.77;;;3.55;;
35634;SDS011;21757;43.610;1.440;2023-05-07T02:14:53;10.48;;;3.47;;
35634;SDS011;21757;43.610;1.440;2023-05-07T02:17:19;14.57;;;4.00;;
35634;SDS011;21757;43.610;1.440;2023-05-07T02:19:45;7.85;;;2.95;;
35634;SDS011;21757;43.610;1.440;2023-05-07T02:22:10;12.18;;;4.00;;
35634;SDS011;21757;43.610;1.440;2023-05-07T02:24:36;13.55;;;3.70;;
35634;SDS011;21757;43.610;1.440;2023-05-07T02:27:02;10.25;;;3.75;;
35634;SDS011;21757;43.610;1.440;2023-05-07T02:29:28;14.48;;;4.13;;
35634;SDS011;21757;43.610;1.440;2023-05-07T02:31:54;10.60;;;3.28;;
35634;SDS011;21757;43.610;1.440;2023-05-07T02:34:20;12.15;;;3.55;;
35634;SDS011;21757;43.610;1.440;2023-05-07T02:36:46;12.05;;;3.38;;
35634;SDS011;21757;43.610;1.440;2023-05-07T02:39:12;12.93;;;3.22;;
35634;SDS011;21757;43.610;1.440;2023-05-07T02:41:38;11.18;;;3.55;;
35634;SDS011;21757;43.610;1.440;2023-05-07T02:44:04;12.80;;;3.67;;
35634;SDS011;21757;43.610;1.440;2023-05-07T02:46:30;12.05;;;4.15;;
35634;SDS011;21757;43.610;1.440;2023-05-07T02:48:56;13.48;;;5.88;;
35634;SDS011;21757;43.610;1.440;2023-05-07T02:51:22;10.52;;;3.50;;
35634;SDS011;21757;43.610;1.440;2023-05-07T02:53:48;15.05;;;3.70;;
35634;SDS011;21757;43.610;1.440;2023-05-07T02:56:14;10.52;;;3.30;;
35634;SDS011;21757;43.610;1.440;2023-05-07T02:58:40;11.82;;;3.70;;
35634;SDS011;21757;43.610;1.440;2023-05-07T03:01:07;14.18;;;3.85;;
35634;SDS011;21757;43.610;1.440;2023-05-07T03:03:33;11.10;;;3.70;;
35634;SDS011;21757;43.610;1.440;2023-05-07T03:05:59;10.32;;;3.35;;
35634;SDS011;21757;43.610;1.440;2023-05-07T03:08:25;10.82;;;3.40;;
35634;SDS011;21757;43.610;1.440;2023-05-07T03:10:51;13.13;;;3.30;;
35634;SDS011;21757;43.610;1.440;2023-05-07T03:13:17;9.50;;;3.08;;
35634;SDS011;21757;43.610;1.440;2023-05-07T03:15:43;9.88;;;3.42;;
35634;SDS011;21757;43.610;1.440;2023-05-07T03:18:09;10.18;;;3.35;;
35634;SDS011;21757;43.610;1.440;2023-05-07T03:20:35;13.80;;;3.53;;
35634;SDS011;21757;43.610;1.440;2023-05-07T03:23:01;12.60;;;3.53;;
35634;SDS011;21757;43.610;1.440;2023-05-07T03:25:27;11.48;;;4.05;;
35634;SDS011;21757;43.610;1.440;2023-05-07T03:27:55;11.68;;;3.75;;
35634;SDS011;21757;43.610;1.440;2023-05-07T03:30:21;12.10;;;3.28;;
35634;SDS011;21757;43.610;1.440;2023-05-07T03:32:46;12.85;;;3.65;;
35634;SDS011;21757;43.610;1.440;2023-05-07T03:35:12;12.10;;;3.75;;
35634;SDS011;21757;43.610;1.440;2023-05-07T03:37:38;11.77;;;3.35;;
35634;SDS011;21757;43.610;1.440;2023-05-07T03:40:05;14.18;;;3.67;;
35634;SDS011;21757;43.610;1.440;2023-05-07T03:42:31;14.30;;;3.55;;
35634;SDS011;21757;43.610;1.440;2023-05-07T03:44:57;14.18;;;5.00;;
35634;SDS011;21757;43.610;1.440;2023-05-07T03:47:23;14.32;;;4.13;;
35634;SDS011;21757;43.610;1.440;2023-05-07T03:49:48;10.77;;;3.53;;
35634;SDS011;21757;43.610;1.440;2023-05-07T03:52:15;13.43;;;3.70;;
35634;SDS011;21757;43.610;1.440;2023-05-07T03:54:41;13.40;;;3.33;;
35634;SDS011;21757;43.610;1.440;2023-05-07T03:57:06;13.60;;;3.38;;
35634;SDS011;21757;43.610;1.440;2023-05-07T03:59:32;11.00;;;3.35;;
35634;SDS011;21757;43.610;1.440;2023-05-07T04:01:58;15.88;;;4.00;;
35634;SDS011;21757;43.610;1.440;2023-05-07T04:04:23;15.18;;;3.63;;
35634;SDS011;21757;43.610;1.440;2023-05-07T04:06:49;13.00;;;3.70;;
35634;SDS011;21757;43.610;1.440;2023-05-07T04:09:15;9.98;;;3.03;;
35634;SDS011;21757;43.610;1.440;2023-05-07T04:11:41;15.43;;;3.58;;
35634;SDS011;21757;43.610;1.440;2023-05-07T04:14:06;16.98;;;4.55;;
35634;SDS011;21757;43.610;1.440;2023-05-07T04:16:32;11.27;;;3.38;;
35634;SDS011;21757;43.610;1.440;2023-05-07T04:18:59;14.82;;;4.07;;
35634;SDS011;21757;43.610;1.440;2023-05-07T04:21:25;11.98;;;3.45;;
35634;SDS011;21757;43.610;1.440;2023-05-07T04:23:51;15.35;;;3.55;;
35634;SDS011;21757;43.610;1.440;2023-05-07T04:26:17;12.27;;;3.70;;
35634;SDS011;21757;43.610;1.440;2023-05-07T04:28:43;8.98;;;3.53;;
35634;SDS011;21757;43.610;1.440;2023-05-07T04:31:08;15.95;;;3.85;;
35634;SDS011;21757;43.610;1.440;2023-05-07T04:33:34;10.73;;;3.78;;
35634;SDS011;21757;43.610;1.440;2023-05-07T04:36:03;11.00;;;3.90;;
35634;SDS011;21757;43.610;1.440;2023-05-07T04:38:30;13.70;;;3.40;;
35634;SDS011;21757;43.610;1.440;2023-05-07T04:40:56;8.80;;;3.22;;
35634;SDS011;21757;43.610;1.440;2023-05-07T04:43:23;13.05;;;3.60;;
35634;SDS011;21757;43.610;1.440;2023-05-07T04:45:50;14.60;;;3.90;;
35634;SDS011;21757;43.610;1.440;2023-05-07T04:48:16;13.18;;;3.80;;
35634;SDS011;21757;43.610;1.440;2023-05-07T04:53:15;9.80;;;3.42;;
35634;SDS011;21757;43.610;1.440;2023-05-07T04:55:41;10.80;;;3.10;;
35634;SDS011;21757;43.610;1.440;2023-05-07T04:58:07;11.38;;;3.50;;
35634;SDS011;21757;43.610;1.440;2023-05-07T05:00:33;13.65;;;3.33;;
35634;SDS011;21757;43.610;1.440;2023-05-07T05:02:59;11.95;;;3.20;;
35634;SDS011;21757;43.610;1.440;2023-05-07T05:05:24;13.15;;;3.45;;
35634;SDS011;21757;43.610;1.440;2023-05-07T05:07:50;11.65;;;3.90;;
35634;SDS011;21757;43.610;1.440;2023-05-07T05:10:16;10.98;;;3.05;;
35634;SDS011;21757;43.610;1.440;2023-05-07T05:12:42;12.10;;;3.17;;
35634;SDS011;21757;43.610;1.440;2023-05-07T05:15:10;12.38;;;3.40;;
35634;SDS011;21757;43.610;1.440;2023-05-07T05:17:37;9.88;;;3.28;;
35634;SDS011;21757;43.610;1.440;2023-05-07T05:20:03;12.95;;;3.63;;
35634;SDS011;21757;43.610;1.440;2023-05-07T05:22:30;15.95;;;3.80;;
35634;SDS011;21757;43.610;1.440;2023-05-07T05:24:56;14.30;;;3.97;;
35634;SDS011;21757;43.610;1.440;2023-05-07T05:27:22;12.80;;;3.88;;
35634;SDS011;21757;43.610;1.440;2023-05-07T05:29:48;11.68;;;3.40;;
35634;SDS011;21757;43.610;1.440;2023-05-07T05:32:14;11.15;;;3.72;;
35634;SDS011;21757;43.610;1.440;2023-05-07T05:34:39;11.48;;;3.85;;
35634;SDS011;21757;43.610;1.440;2023-05-07T05:37:05;11.73;;;3.80;;
35634;SDS011;21757;43.610;1.440;2023-05-07T05:39:31;13.60;;;4.00;;
35634;SDS011;21757;43.610;1.440;2023-05-07T05:41:56;11.95;;;3.72;;
35634;SDS011;21757;43.610;1.440;2023-05-07T05:44:22;11.80;;;3.78;;
35634;SDS011;21757;43.610;1.440;2023-05-07T05:46:47;15.98;;;4.00;;
35634;SDS011;21757;43.610;1.440;2023-05-07T05:49:14;13.10;;;3.70;;
35634;SDS011;21757;43.610;1.440;2023-05-07T05:51:40;15.00;;;4.20;;
35634;SDS011;21757;43.610;1.440;2023-05-07T05:54:06;13.43;;;3.78;;
35634;SDS011;21757;43.610;1.440;2023-05-07T05:56:32;18.77;;;4.15;;
35634;SDS011;21757;43.610;1.440;2023-05-07T05:58:58;12.77;;;4.18;;
35634;SDS011;21757;43.610;1.440;2023-05-07T06:01:23;14.13;;;3.65;;
35634;SDS011;21757;43.610;1.440;2023-05-07T06:03:49;15.80;;;4.43;;
35634;SDS011;21757;43.610;1.440;2023-05-07T06:06:15;12.07;;;3.40;;
35634;SDS011;21757;43.610;1.440;2023-05-07T06:08:40;12.05;;;3.40;;
35634;SDS011;21757;43.610;1.440;2023-05-07T06:11:06;12.55;;;3.28;;
35634;SDS011;21757;43.610;1.440;2023-05-07T06:13:32;11.68;;;3.60;;
35634;SDS011;21757;43.610;1.440;2023-05-07T06:15:58;12.27;;;3.78;;
35634;SDS011;21757;43.610;1.440;2023-05-07T06:18:23;11.73;;;2.97;;
35634;SDS011;21757;43.610;1.440;2023-05-07T06:20:50;11.25;;;3.33;;
35634;SDS011;21757;43.610;1.440;2023-05-07T06:23:16;11.73;;;3.25;;
35634;SDS011;21757;43.610;1.440;2023-05-07T06:25:43;9.80;;;3.10;;
35634;SDS011;21757;43.610;1.440;2023-05-07T06:28:13;13.80;;;3.40;;
35634;SDS011;21757;43.610;1.440;2023-05-07T06:30:39;12.10;;;3.30;;
35634;SDS011;21757;43.610;1.440;2023-05-07T06:33:05;12.32;;;3.35;;
35634;SDS011;21757;43.610;1.440;2023-05-07T06:35:31;12.13;;;3.80;;
35634;SDS011;21757;43.610;1.440;2023-05-07T06:37:56;14.70;;;3.67;;
35634;SDS011;21757;43.610;1.440;2023-05-07T06:40:22;14.70;;;3.80;;
35634;SDS011;21757;43.610;1.440;2023-05-07T06:42:48;13.75;;;4.22;;
35634;SDS011;21757;43.610;1.440;2023-05-07T06:45:13;12.00;;;4.10;;
35634;SDS011;21757;43.610;1.440;2023-05-07T06:47:39;41.72;;;4.50;;
35634;SDS011;21757;43.610;1.440;2023-05-07T06:50:05;11.75;;;3.25;;
35634;SDS011;21757;43.610;1.440;2023-05-07T06:52:31;16.40;;;4.20;;
35634;SDS011;21757;43.610;1.440;2023-05-07T06:54:57;13.73;;;3.80;;
35634;SDS011;21757;43.610;1.440;2023-05-07T06:57:23;11.38;;;3.80;;
35634;SDS011;21757;43.610;1.440;2023-05-07T06:59:49;12.82;;;4.10;;
35634;SDS011;21757;43.610;1.440;2023-05-07T07:02:15;18.35;;;4.32;;
35634;SDS011;21757;43.610;1.440;2023-05-07T07:04:41;15.75;;;3.53;;
35634;SDS011;21757;43.610;1.440;2023-05-07T07:07:07;15.10;;;3.55;;
35634;SDS011;21757;43.610;1.440;2023-05-07T07:09:32;12.18;;;3.58;;
35634;SDS011;21757;43.610;1.440;2023-05-07T07:12:01;14.15;;;3.50;;
35634;SDS011;21757;43.610;1.440;2023-05-07T07:14:27;12.68;;;3.60;;
35634;SDS011;21757;43.610;1.440;2023-05-07T07:16:52;15.80;;;4.13;;
35634;SDS011;21757;43.610;1.440;2023-05-07T07:19:18;15.20;;;4.40;;
35634;SDS011;21757;43.610;1.440;2023-05-07T07:21:45;13.98;;;3.80;;
35634;SDS011;21757;43.610;1.440;2023-05-07T07:24:11;12.85;;;3.72;;
35634;SDS011;21757;43.610;1.440;2023-05-07T07:26:37;13.02;;;3.75;;
35634;SDS011;21757;43.610;1.440;2023-05-07T07:29:02;13.90;;;4.07;;
35634;SDS011;21757;43.610;1.440;2023-05-07T07:31:28;11.75;;;3.25;;
35634;SDS011;21757;43.610;1.440;2023-05-07T07:33:54;17.08;;;4.10;;
35634;SDS011;21757;43.610;1.440;2023-05-07T07:36:20;11.60;;;3.40;;
35634;SDS011;21757;43.610;1.440;2023-05-07T07:38:45;12.68;;;3.53;;
35634;SDS011;21757;43.610;1.440;2023-05-07T07:41:11;14.43;;;3.30;;
35634;SDS011;21757;43.610;1.440;2023-05-07T07:43:36;13.68;;;3.53;;
35634;SDS011;21757;43.610;1.440;2023-05-07T07:46:02;11.65;;;3.40;;
35634;SDS011;21757;43.610;1.440;2023-05-07T07:48:28;16.55;;;3.40;;
35634;SDS011;21757;43.610;1.440;2023-05-07T07:50:54;13.48;;;3.65;;
35634;SDS011;21757;43.610;1.440;2023-05-07T07:53:19;14.43;;;3.50;;
35634;SDS011;21757;43.610;1.440;2023-05-07T07:55:45;11.88;;;3.55;;
35634;SDS011;21757;43.610;1.440;2023-05-07T07:58:11;10.95;;;3.78;;
35634;SDS011;21757;43.610;1.440;2023-05-07T08:00:36;10.38;;;3.13;;
35634;SDS011;21757;43.610;1.440;2023-05-07T08:03:02;15.02;;;3.70;;
35634;SDS011;21757;43.610;1.440;2023-05-07T08:05:28;14.23;;;3.50;;
35634;SDS011;21757;43.610;1.440;2023-05-07T08:07:54;11.75;;;3.53;;
35634;SDS011;21757;43.610;1.440;2023-05-07T08:10:20;15.23;;;3.55;;
35634;SDS011;21757;43.610;1.440;2023-05-07T08:12:47;20.85;;;9.40;;
35634;SDS011;21757;43.610;1.440;2023-05-07T08:15:13;11.20;;;3.92;;
35634;SDS011;21757;43.610;1.440;2023-05-07T08:17:39;13.48;;;4.65;;
35634;SDS011;21757;43.610;1.440;2023-05-07T08:20:05;13.20;;;3.60;;
35634;SDS011;21757;43.610;1.440;2023-05-07T08:22:32;15.23;;;3.03;;
35634;SDS011;21757;43.610;1.440;2023-05-07T08:25:02;14.65;;;3.85;;
35634;SDS011;21757;43.610;1.440;2023-05-07T08:27:28;12.10;;;3.50;;
35634;SDS011;21757;43.610;1.440;2023-05-07T08:29:54;12.57;;;3.70;;
35634;SDS011;21757;43.610;1.440;2023-05-07T08:32:20;12.50;;;3.67;;
35634;SDS011;21757;43.610;1.440;2023-05-07T08:34:46;11.43;;;3.28;;
35634;SDS011;21757;43.610;1.440;2023-05-07T08:37:12;12.43;;;3.60;;
35634;SDS011;21757;43.610;1.440;2023-05-07T08:39:37;12.23;;;3.47;;
35634;SDS011;21757;43.610;1.440;2023-05-07T08:42:03;10.98;;;3.38;;
35634;SDS011;21757;43.610;1.440;2023-05-07T08:44:33;10.27;;;3.20;;
35634;SDS011;21757;43.610;1.440;2023-05-07T08:47:00;14.77;;;4.07;;
35634;SDS011;21757;43.610;1.440;2023-05-07T08:49:29;11.50;;;4.57;;
35634;SDS011;21757;43.610;1.440;2023-05-07T08:51:55;13.20;;;4.10;;
35634;SDS011;21757;43.610;1.440;2023-05-07T08:54:21;13.48;;;3.80;;
35634;SDS011;21757;43.610;1.440;2023-05-07T08:56:47;13.43;;;3.67;;
35634;SDS011;21757;43.610;1.440;2023-05-07T08:59:13;13.95;;;3.50;;
35634;SDS011;21757;43.610;1.440;2023-05-07T09:01:39;14.02;;;5.97;;
35634;SDS011;21757;43.610;1.440;2023-05-07T09:04:05;10.30;;;3.53;;
35634;SDS011;21757;43.610;1.440;2023-05-07T09:06:32;21.00;;;4.15;;
35634;SDS011;21757;43.610;1.440;2023-05-07T09:09:02;14.38;;;4.80;;
35634;SDS011;21757;43.610;1.440;2023-05-07T09:11:30;15.18;;;5.68;;
35634;SDS011;21757;43.610;1.440;2023-05-07T09:13:59;15.00;;;4.18;;
35634;SDS011;21757;43.610;1.440;2023-05-07T09:16:30;12.55;;;4.78;;
35634;SDS011;21757;43.610;1.440;2023-05-07T09:18:58;13.88;;;3.80;;
35634;SDS011;21757;43.610;1.440;2023-05-07T09:21:27;11.50;;;3.17;;
35634;SDS011;21757;43.610;1.440;2023-05-07T09:23:53;25.77;;;10.48;;
35634;SDS011;21757;43.610;1.440;2023-05-07T09:26:21;24.42;;;11.02;;
35634;SDS011;21757;43.610;1.440;2023-05-07T09:28:47;22.50;;;9.00;;
35634;SDS011;21757;43.610;1.440;2023-05-07T09:31:13;9.68;;;3.13;;
35634;SDS011;21757;43.610;1.440;2023-05-07T09:33:39;11.95;;;3.28;;
35634;SDS011;21757;43.610;1.440;2023-05-07T09:36:05;17.27;;;5.78;;
35634;SDS011;21757;43.610;1.440;2023-05-07T09:38:33;10.90;;;3.65;;
35634;SDS011;21757;43.610;1.440;2023-05-07T09:41:02;12.77;;;3.42;;
35634;SDS011;21757;43.610;1.440;2023-05-07T09:43:31;10.70;;;3.13;;
35634;SDS011;21757;43.610;1.440;2023-05-07T09:46:02;15.55;;;4.65;;
35634;SDS011;21757;43.610;1.440;2023-05-07T09:48:30;11.57;;;4.20;;
35634;SDS011;21757;43.610;1.440;2023-05-07T09:51:01;14.60;;;3.25;;
35634;SDS011;21757;43.610;1.440;2023-05-07T09:53:29;14.57;;;3.83;;
35634;SDS011;21757;43.610;1.440;2023-05-07T09:55:56;17.02;;;4.07;;
35634;SDS011;21757;43.610;1.440;2023-05-07T09:58:23;17.08;;;5.45;;
35634;SDS011;21757;43.610;1.440;2023-05-07T10:00:50;18.65;;;4.80;;
35634;SDS011;21757;43.610;1.440;2023-05-07T10:03:17;15.68;;;4.57;;
35634;SDS011;21757;43.610;1.440;2023-05-07T10:05:44;9.93;;;4.00;;
35634;SDS011;21757;43.610;1.440;2023-05-07T10:08:12;13.18;;;3.47;;
35634;SDS011;21757;43.610;1.440;2023-05-07T10:10:38;11.57;;;3.55;;
35634;SDS011;21757;43.610;1.440;2023-05-07T10:13:05;13.35;;;4.32;;
35634;SDS011;21757;43.610;1.440;2023-05-07T10:15:35;15.07;;;3.88;;
35634;SDS011;21757;43.610;1.440;2023-05-07T10:18:02;13.15;;;4.15;;
35634;SDS011;21757;43.610;1.440;2023-05-07T10:20:29;16.48;;;3.63;;
35634;SDS011;21757;43.610;1.440;2023-05-07T10:22:56;10.65;;;4.28;;
35634;SDS011;21757;43.610;1.440;2023-05-07T10:25:28;12.75;;;4.45;;
35634;SDS011;21757;43.610;1.440;2023-05-07T10:27:57;13.95;;;4.50;;
35634;SDS011;21757;43.610;1.440;2023-05-07T10:30:35;16.50;;;4.23;;
35634;SDS011;21757;43.610;1.440;2023-05-07T10:33:05;11.32;;;4.00;;
35634;SDS011;21757;43.610;1.440;2023-05-07T10:35:41;15.95;;;4.53;;
35634;SDS011;21757;43.610;1.440;2023-05-07T10:38:11;13.85;;;4.50;;
35634;SDS011;21757;43.610;1.440;2023-05-07T10:40:37;13.07;;;4.05;;
35634;SDS011;21757;43.610;1.440;2023-05-07T10:43:03;11.52;;;3.47;;
35634;SDS011;21757;43.610;1.440;2023-05-07T10:45:30;14.50;;;3.75;;
35634;SDS011;21757;43.610;1.440;2023-05-07T10:48:12;14.10;;;3.70;;
35634;SDS011;21757;43.610;1.440;2023-05-07T10:50:44;14.60;;;3.83;;
35634;SDS011;21757;43.610;1.440;2023-05-07T10:53:22;13.60;;;4.82;;
35634;SDS011;21757;43.610;1.440;2023-05-07T10:55:51;16.25;;;5.60;;
35634;SDS011;21757;43.610;1.440;2023-05-07T10:58:37;16.08;;;5.20;;
35634;SDS011;21757;43.610;1.440;2023-05-07T11:01:03;16.83;;;5.00;;
35634;SDS011;21757;43.610;1.440;2023-05-07T11:03:29;11.13;;;3.67;;
35634;SDS011;21757;43.610;1.440;2023-05-07T11:06:14;11.65;;;4.22;;
35634;SDS011;21757;43.610;1.440;2023-05-07T11:08:57;13.68;;;4.15;;
35634;SDS011;21757;43.610;1.440;2023-05-07T11:17:07;15.55;;;4.47;;
35634;SDS011;21757;43.610;1.440;2023-05-07T11:19:50;15.75;;;5.82;;
35634;SDS011;21757;43.610;1.440;2023-05-07T11:25:04;15.82;;;3.85;;
35634;SDS011;21757;43.610;1.440;2023-05-07T11:27:31;12.50;;;3.70;;
35634;SDS011;21757;43.610;1.440;2023-05-07T11:29:57;10.50;;;3.72;;
35634;SDS011;21757;43.610;1.440;2023-05-07T11:32:24;10.73;;;4.00;;
35634;SDS011;21757;43.610;1.440;2023-05-07T11:34:51;12.98;;;3.42;;
35634;SDS011;21757;43.610;1.440;2023-05-07T11:37:17;12.02;;;4.00;;
35634;SDS011;21757;43.610;1.440;2023-05-07T11:39:44;15.32;;;3.58;;
35634;SDS011;21757;43.610;1.440;2023-05-07T11:42:28;10.48;;;3.10;;
35634;SDS011;21757;43.610;1.440;2023-05-07T11:44:55;9.32;;;3.00;;
35634;SDS011;21757;43.610;1.440;2023-05-07T11:47:21;15.43;;;3.55;;
35634;SDS011;21757;43.610;1.440;2023-05-07T11:49:47;9.40;;;3.03;;
35634;SDS011;21757;43.610;1.440;2023-05-07T11:52:14;10.88;;;3.03;;
35634;SDS011;21757;43.610;1.440;2023-05-07T11:54:40;11.65;;;3.65;;
35634;SDS011;21757;43.610;1.440;2023-05-07T11:57:06;11.38;;;3.15;;
35634;SDS011;21757;43.610;1.440;2023-05-07T11:59:41;11.20;;;3.50;;
35634;SDS011;21757;43.610;1.440;2023-05-07T12:02:07;10.40;;;2.88;;
35634;SDS011;21757;43.610;1.440;2023-05-07T12:04:36;8.30;;;2.88;;
35634;SDS011;21757;43.610;1.440;2023-05-07T12:07:03;8.73;;;2.83;;
35634;SDS011;21757;43.610;1.440;2023-05-07T12:09:28;11.60;;;3.50;;
35634;SDS011;21757;43.610;1.440;2023-05-07T12:11:54;10.38;;;2.88;;
35634;SDS011;21757;43.610;1.440;2023-05-07T12:14:21;7.20;;;2.30;;
35634;SDS011;21757;43.610;1.440;2023-05-07T12:16:47;12.65;;;3.05;;
35634;SDS011;21757;43.610;1.440;2023-05-07T12:19:13;11.02;;;3.22;;
35634;SDS011;21757;43.610;1.440;2023-05-07T12:21:39;8.23;;;2.60;;
35634;SDS011;21757;43.610;1.440;2023-05-07T12:24:05;9.15;;;2.83;;
35634;SDS011;21757;43.610;1.440;2023-05-07T12:26:31;9.27;;;3.30;;
35634;SDS011;21757;43.610;1.440;2023-05-07T12:28:57;9.27;;;2.63;;
35634;SDS011;21757;43.610;1.440;2023-05-07T12:31:25;8.73;;;3.25;;
35634;SDS011;21757;43.610;1.440;2023-05-07T12:33:51;9.93;;;2.65;;
35634;SDS011;21757;43.610;1.440;2023-05-07T12:36:17;8.82;;;2.40;;
35634;SDS011;21757;43.610;1.440;2023-05-07T12:38:43;10.52;;;2.63;;
35634;SDS011;21757;43.610;1.440;2023-05-07T12:41:09;6.88;;;2.58;;
35634;SDS011;21757;43.610;1.440;2023-05-07T12:43:37;10.50;;;2.97;;
35634;SDS011;21757;43.610;1.440;2023-05-07T12:46:04;10.15;;;2.83;;
35634;SDS011;21757;43.610;1.440;2023-05-07T12:48:31;8.27;;;2.47;;
35634;SDS011;21757;43.610;1.440;2023-05-07T12:50:58;9.43;;;2.55;;
35634;SDS011;21757;43.610;1.440;2023-05-07T12:53:25;8.18;;;2.47;;
35634;SDS011;21757;43.610;1.440;2023-05-07T12:55:52;5.80;;;2.30;;
35634;SDS011;21757;43.610;1.440;2023-05-07T12:58:21;12.18;;;3.05;;
35634;SDS011;21757;43.610;1.440;2023-05-07T13:00:49;8.05;;;2.50;;
35634;SDS011;21757;43.610;1.440;2023-05-07T13:03:22;9.25;;;2.55;;
35634;SDS011;21757;43.610;1.440;2023-05-07T13:06:02;8.30;;;2.40;;
35634;SDS011;21757;43.610;1.440;2023-05-07T13:08:30;10.82;;;2.28;;
35634;SDS011;21757;43.610;1.440;2023-05-07T13:10:58;8.73;;;3.03;;
35634;SDS011;21757;43.610;1.440;2023-05-07T13:13:25;8.02;;;3.22;;
35634;SDS011;21757;43.610;1.440;2023-05-07T13:15:51;10.82;;;3.10;;
35634;SDS011;21757;43.610;1.440;2023-05-07T13:18:17;11.82;;;3.65;;
35634;SDS011;21757;43.610;1.440;2023-05-07T13:20:42;6.53;;;2.42;;
35634;SDS011;21757;43.610;1.440;2023-05-07T13:23:10;7.57;;;2.72;;
35634;SDS011;21757;43.610;1.440;2023-05-07T13:25:37;9.35;;;3.00;;
35634;SDS011;21757;43.610;1.440;2023-05-07T13:28:03;7.95;;;2.00;;
35634;SDS011;21757;43.610;1.440;2023-05-07T13:30:29;10.90;;;2.50;;
35634;SDS011;21757;43.610;1.440;2023-05-07T13:32:55;7.28;;;2.00;;
35634;SDS011;21757;43.610;1.440;2023-05-07T13:35:21;8.60;;;2.47;;
35634;SDS011;21757;43.610;1.440;2023-05-07T13:37:47;5.32;;;2.03;;
35634;SDS011;21757;43.610;1.440;2023-05-07T13:40:14;7.25;;;2.28;;
35634;SDS011;21757;43.610;1.440;2023-05-07T13:42:40;7.13;;;2.42;;
35634;SDS011;21757;43.610;1.440;2023-05-07T13:45:06;8.20;;;2.25;;
35634;SDS011;21757;43.610;1.440;2023-05-07T13:47:32;7.95;;;2.10;;
35634;SDS011;21757;43.610;1.440;2023-05-07T13:49:58;14.00;;;4.75;;
35634;SDS011;21757;43.610;1.440;2023-05-07T13:52:24;9.75;;;2.25;;
35634;SDS011;21757;43.610;1.440;2023-05-07T13:54:50;9.23;;;3.47;;
35634;SDS011;21757;43.610;1.440;2023-05-07T13:57:17;7.57;;;2.80;;
35634;SDS011;21757;43.610;1.440;2023-05-07T13:59:44;7.72;;;2.70;;
35634;SDS011;21757;43.610;1.440;2023-05-07T14:02:10;7.50;;;2.63;;
35634;SDS011;21757;43.610;1.440;2023-05-07T14:04:37;9.30;;;3.58;;
35634;SDS011;21757;43.610;1.440;2023-05-07T14:07:03;6.63;;;2.83;;
35634;SDS011;21757;43.610;1.440;2023-05-07T14:09:28;6.68;;;2.70;;
35634;SDS011;21757;43.610;1.440;2023-05-07T14:11:54;13.98;;;4.05;;
35634;SDS011;21757;43.610;1.440;2023-05-07T14:14:20;7.75;;;2.50;;
35634;SDS011;21757;43.610;1.440;2023-05-07T14:16:46;11.30;;;4.88;;
35634;SDS011;21757;43.610;1.440;2023-05-07T14:19:12;11.23;;;3.08;;
35634;SDS011;21757;43.610;1.440;2023-05-07T14:21:37;10.85;;;2.60;;
35634;SDS011;21757;43.610;1.440;2023-05-07T14:24:05;9.55;;;2.72;;
35634;SDS011;21757;43.610;1.440;2023-05-07T14:26:32;6.45;;;1.80;;
35634;SDS011;21757;43.610;1.440;2023-05-07T14:28:58;7.47;;;2.00;;
35634;SDS011;21757;43.610;1.440;2023-05-07T14:31:24;9.38;;;2.00;;
35634;SDS011;21757;43.610;1.440;2023-05-07T14:33:49;10.63;;;2.67;;
35634;SDS011;21757;43.610;1.440;2023-05-07T14:36:16;7.25;;;2.10;;
35634;SDS011;21757;43.610;1.440;2023-05-07T14:38:42;7.18;;;2.30;;
35634;SDS011;21757;43.610;1.440;2023-05-07T14:41:08;6.50;;;2.50;;
35634;SDS011;21757;43.610;1.440;2023-05-07T14:43:33;6.45;;;2.20;;
35634;SDS011;21757;43.610;1.440;2023-05-07T14:45:59;7.63;;;2.13;;
35634;SDS011;21757;43.610;1.440;2023-05-07T14:48:25;6.68;;;2.58;;